Time;durP1;ratioP1;P1;durP2;ratioP2;P2;SDS_P1;SDS_P2;PMS_P1;PMS_P2;Temp;Humidity;BMP_temperature;BMP_pressure;BME280_temperature;BME280_humidity;BME280_pressure;Samples;Min_cycle;Max_cycle;Signal;HPM_P1;HPM_P2
2023/04/02 00:01:00;;;;;;;0.90;0.90;;;11.00;98.60;;;;;;5024680;28;20228;-78
2023/04/02 00:03:52;;;;;;;1.00;1.00;;;11.00;98.60;;;;;;5054875;28;20224;-77
2023/04/02 00:06:33;;;;;;;1.27;1.27;;;11.10;98.50;;;;;;5054794;28;20198;-79
2023/04/02 00:09:01;;;;;;;1.13;1.13;;;11.10;98.60;;;;;;5054807;28;20708;-77
2023/04/02 00:11:43;;;;;;;1.30;1.30;;;11.00;98.60;;;;;;5054746;28;20171;-78
2023/04/02 00:14:22;;;;;;;1.07;1.07;;;10.90;98.90;;;;;;5055105;28;20190;-78
2023/04/02 00:16:48;;;;;;;1.30;1.30;;;10.80;99.00;;;;;;5054610;28;20241;-79
2023/04/02 00:19:47;;;;;;;1.03;1.00;;;10.80;98.90;;;;;;5054309;28;20523;-77
2023/04/02 00:22:19;;;;;;;1.10;1.00;;;10.80;99.10;;;;;;5053522;28;20282;-79
2023/04/02 00:24:45;;;;;;;1.10;1.10;;;10.90;99.20;;;;;;5054200;28;20160;-77
2023/04/02 00:27:12;;;;;;;1.33;1.33;;;10.80;99.20;;;;;;5053907;28;20607;-77
2023/04/02 00:29:49;;;;;;;1.07;0.97;;;10.80;99.00;;;;;;5053732;28;20256;-78
2023/04/02 00:32:40;;;;;;;1.17;1.17;;;10.80;99.10;;;;;;5053799;28;20168;-77
2023/04/02 00:35:16;;;;;;;0.90;0.90;;;10.80;99.30;;;;;;5053569;28;20188;-79
2023/04/02 00:37:43;;;;;;;1.00;1.00;;;10.80;99.70;;;;;;5053723;28;20630;-77
2023/04/02 00:40:19;;;;;;;1.73;1.63;;;10.70;99.70;;;;;;5053435;28;20670;-78
2023/04/02 00:42:47;;;;;;;1.40;1.40;;;10.70;99.60;;;;;;5053647;28;20164;-77
2023/04/02 00:45:24;;;;;;;1.13;1.13;;;10.70;99.50;;;;;;5053741;28;20179;-76
2023/04/02 00:47:51;;;;;;;1.87;1.77;;;10.70;99.60;;;;;;5053575;28;20156;-77
2023/04/02 00:50:41;;;;;;;1.30;1.30;;;10.70;99.80;;;;;;5051484;28;20934;-77
2023/04/02 00:53:23;;;;;;;1.30;1.30;;;10.70;99.60;;;;;;5052415;28;20194;-77
2023/04/02 00:55:49;;;;;;;1.67;1.57;;;10.70;99.80;;;;;;5052560;28;20260;-78
2023/04/02 00:58:26;;;;;;;2.47;2.30;;;10.70;99.70;;;;;;5052421;28;20202;-78
2023/04/02 01:00:53;;;;;;;1.80;1.70;;;10.70;99.70;;;;;;5089958;28;20235;-77
2023/04/02 01:03:18;;;;;;;1.13;1.13;;;10.70;99.80;;;;;;5093003;28;20182;-76
2023/04/02 01:05:49;;;;;;;1.37;1.33;;;10.70;99.70;;;;;;5093132;28;20171;-77
2023/04/02 01:08:30;;;;;;;1.40;1.40;;;10.70;99.70;;;;;;5092090;28;20168;-77
2023/04/02 01:11:07;;;;;;;3.07;1.60;;;10.60;99.80;;;;;;5092755;28;20192;-78
2023/04/02 01:13:55;;;;;;;1.30;1.30;;;10.50;99.90;;;;;;5092361;28;20182;-78
2023/04/02 01:16:29;;;;;;;1.70;1.60;;;10.50;99.90;;;;;;5093084;28;20176;-78
2023/04/02 01:19:04;;;;;;;1.20;1.20;;;10.40;99.90;;;;;;5097426;28;20199;-77
2023/04/02 01:21:56;;;;;;;1.53;1.43;;;10.30;99.90;;;;;;5112984;28;20198;-78
2023/04/02 01:24:25;;;;;;;1.40;1.23;;;10.30;99.90;;;;;;5112913;28;20182;-77
2023/04/02 01:27:00;;;;;;;1.63;1.53;;;10.30;99.90;;;;;;5112265;28;20176;-78
2023/04/02 01:29:44;;;;;;;3.33;1.10;;;10.30;99.90;;;;;;5113346;28;20191;-77
2023/04/02 01:32:16;;;;;;;1.47;1.37;;;10.20;99.90;;;;;;5094585;28;20182;-78
2023/04/02 01:34:44;;;;;;;1.30;1.30;;;10.20;99.90;;;;;;5113259;28;20173;-78
2023/04/02 01:37:35;;;;;;;1.50;1.40;;;10.20;99.90;;;;;;5095862;28;20201;-77
2023/04/02 01:40:29;;;;;;;1.50;1.40;;;10.10;99.90;;;;;;5114227;28;20209;-77
2023/04/02 01:43:19;;;;;;;1.23;1.23;;;10.10;99.90;;;;;;5102344;28;20173;-78
2023/04/02 01:45:45;;;;;;;1.60;1.50;;;10.10;99.90;;;;;;5093751;28;20165;-77
2023/04/02 01:48:26;;;;;;;1.30;1.30;;;10.20;99.90;;;;;;5093652;28;20167;-78
2023/04/02 01:50:54;;;;;;;1.60;1.10;;;10.20;99.90;;;;;;5092682;28;20630;-77
2023/04/02 01:53:22;;;;;;;1.10;1.10;;;10.20;99.90;;;;;;5092560;28;20177;-77
2023/04/02 01:55:54;;;;;;;1.10;1.10;;;10.10;99.90;;;;;;5093272;28;20661;-79
2023/04/02 01:58:24;;;;;;;1.37;1.37;;;10.10;99.90;;;;;;5092888;28;20175;-79
2023/04/02 02:01:11;;;;;;;1.10;1.10;;;10.10;99.90;;;;;;5092080;28;20679;-77
2023/04/02 02:03:39;;;;;;;1.20;1.20;;;10.10;99.90;;;;;;5092320;28;20165;-79
2023/04/02 02:06:05;;;;;;;1.40;1.40;;;10.00;99.90;;;;;;5092488;28;20171;-78
2023/04/02 02:08:47;;;;;;;1.00;1.00;;;9.90;99.90;;;;;;5089866;28;20190;-77
2023/04/02 02:11:16;;;;;;;1.23;1.23;;;9.90;99.90;;;;;;5093081;28;20208;-77
2023/04/02 02:13:57;;;;;;;1.20;1.20;;;9.90;99.90;;;;;;5092721;28;20183;-78
2023/04/02 02:16:26;;;;;;;1.33;1.33;;;9.90;99.90;;;;;;5092571;28;20180;-77
2023/04/02 02:19:03;;;;;;;1.63;1.33;;;9.80;99.90;;;;;;5097417;28;20547;-78
2023/04/02 02:21:29;;;;;;;1.47;1.47;;;9.80;99.90;;;;;;5101211;28;20177;-79
2023/04/02 02:23:56;;;;;;;1.80;1.70;;;9.70;99.90;;;;;;5091138;28;20180;-79
2023/04/02 02:26:25;;;;;;;1.20;1.20;;;9.60;99.90;;;;;;5092279;28;20533;-79
2023/04/02 02:28:55;;;;;;;2.70;1.50;;;9.60;99.90;;;;;;5092163;28;20185;-78
2023/04/02 02:31:26;;;;;;;1.70;1.60;;;9.50;99.90;;;;;;5091827;28;20848;-77
2023/04/02 02:33:59;;;;;;;1.30;1.30;;;9.40;99.90;;;;;;5092099;28;20161;-77
2023/04/02 02:36:46;;;;;;;1.30;1.30;;;9.50;99.90;;;;;;5092602;28;20161;-77
2023/04/02 02:39:40;;;;;;;1.40;1.40;;;9.40;99.90;;;;;;5091876;28;20212;-79
2023/04/02 02:42:31;;;;;;;1.23;1.20;;;9.30;99.90;;;;;;5079938;28;20197;-78
2023/04/02 02:45:00;;;;;;;1.50;1.50;;;9.30;99.90;;;;;;5092669;28;20620;-77
2023/04/02 02:47:28;;;;;;;4.93;1.40;;;9.20;99.90;;;;;;5096256;28;20206;-78
2023/04/02 02:49:58;;;;;;;1.13;1.13;;;9.20;99.90;;;;;;5096099;28;20280;-78
2023/04/02 02:52:31;;;;;;;1.30;1.30;;;9.20;99.90;;;;;;5095863;28;20163;-79
2023/04/02 02:55:00;;;;;;;1.27;1.27;;;9.10;99.90;;;;;;5096066;28;20246;-79
2023/04/02 02:57:32;;;;;;;1.33;1.33;;;9.00;99.90;;;;;;5095640;28;20170;-78
2023/04/02 03:00:00;;;;;;;1.30;1.30;;;9.10;99.90;;;;;;5095489;28;20308;-78
2023/04/02 03:02:28;;;;;;;1.20;1.20;;;9.10;99.90;;;;;;5095246;28;20199;-78
2023/04/02 03:04:55;;;;;;;1.30;1.30;;;9.10;99.90;;;;;;5095833;28;20491;-80
2023/04/02 03:07:24;;;;;;;1.37;1.27;;;9.10;99.90;;;;;;5096801;28;20273;-77
2023/04/02 03:10:16;;;;;;;1.57;1.47;;;9.10;99.90;;;;;;5096206;28;20185;-77
2023/04/02 03:12:48;;;;;;;1.57;1.47;;;9.10;99.90;;;;;;5095928;28;20158;-77
2023/04/02 03:15:40;;;;;;;1.03;1.03;;;9.10;99.90;;;;;;5096255;28;20265;-79
2023/04/02 03:18:09;;;;;;;1.80;1.70;;;9.10;99.90;;;;;;5095637;28;20159;-77
2023/04/02 03:20:51;;;;;;;1.40;1.30;;;9.10;99.90;;;;;;5114897;28;20205;-77
2023/04/02 03:23:27;;;;;;;1.30;1.30;;;9.10;99.90;;;;;;5116381;28;20654;-78
2023/04/02 03:26:00;;;;;;;1.43;1.33;;;9.10;99.90;;;;;;5115885;28;20166;-77
2023/04/02 03:28:37;;;;;;;1.20;1.20;;;9.00;99.90;;;;;;5115847;28;20244;-76
2023/04/02 03:31:49;;;;;;;1.60;1.53;;;8.90;99.90;;;;;;5115543;28;20166;-77
2023/04/02 03:34:28;;;;;;;1.67;1.57;;;9.00;99.90;;;;;;5032570;28;20184;-76
2023/04/02 03:37:01;;;;;;;1.37;1.27;;;8.90;99.90;;;;;;5032470;28;20184;-79
2023/04/02 03:39:52;;;;;;;1.63;1.40;;;8.90;99.90;;;;;;5016019;28;20810;-77
2023/04/02 03:42:25;;;;;;;1.50;1.40;;;8.80;99.90;;;;;;5022194;28;20194;-77
2023/04/02 03:44:56;;;;;;;1.23;1.23;;;8.80;99.90;;;;;;5032407;28;20201;-77
2023/04/02 03:47:36;;;;;;;1.60;1.50;;;8.80;99.90;;;;;;5031942;28;20211;-78
2023/04/02 03:50:17;;;;;;;1.30;1.23;;;8.70;99.90;;;;;;5033180;28;20192;-78
2023/04/02 03:52:44;;;;;;;1.33;1.30;;;8.70;99.90;;;;;;5033242;28;20281;-76
2023/04/02 03:55:18;;;;;;;1.80;1.70;;;8.80;99.90;;;;;;5033258;28;20234;-78
2023/04/02 03:58:02;;;;;;;1.30;1.30;;;8.80;99.90;;;;;;5032924;28;20184;-78
2023/04/02 04:00:49;;;;;;;1.70;1.60;;;8.80;99.90;;;;;;5032737;28;20314;-80
2023/04/02 04:03:23;;;;;;;1.50;1.50;;;8.80;99.90;;;;;;5032286;28;20175;-78
2023/04/02 04:06:13;;;;;;;3.60;1.47;;;8.80;99.90;;;;;;5032082;28;20198;-79
2023/04/02 04:09:10;;;;;;;1.93;1.20;;;8.80;99.90;;;;;;5032840;28;20247;-79
2023/04/02 04:11:42;;;;;;;1.83;1.77;;;8.90;99.90;;;;;;5103417;28;20200;-76
2023/04/02 04:14:30;;;;;;;1.43;1.33;;;8.80;99.90;;;;;;5114726;28;20162;-77
2023/04/02 04:17:12;;;;;;;1.30;1.30;;;8.80;99.90;;;;;;5114709;28;20173;-76
2023/04/02 04:19:45;;;;;;;1.70;1.70;;;8.60;99.90;;;;;;5103190;28;20199;-78
2023/04/02 04:22:17;;;;;;;1.50;1.50;;;8.50;99.90;;;;;;5093904;28;20518;-77
2023/04/02 04:24:47;;;;;;;1.47;1.37;;;8.50;99.90;;;;;;5094347;28;20195;-77
2023/04/02 04:27:35;;;;;;;1.40;1.40;;;8.50;99.90;;;;;;5094580;28;20174;-78
2023/04/02 04:30:17;;;;;;;1.60;1.50;;;8.60;99.90;;;;;;5081811;28;20210;-77
2023/04/02 04:32:57;;;;;;;1.37;1.37;;;8.70;99.90;;;;;;5093978;28;20528;-78
2023/04/02 04:35:44;;;;;;;1.67;1.67;;;8.80;99.90;;;;;;5093863;28;20259;-76
2023/04/02 04:38:20;;;;;;;1.70;1.70;;;8.80;99.90;;;;;;5093709;28;20189;-76
2023/04/02 04:40:57;;;;;;;1.50;1.50;;;8.80;99.90;;;;;;5093639;28;20621;-79
2023/04/02 04:43:43;;;;;;;1.90;1.80;;;8.80;99.90;;;;;;5094036;28;20158;-76
2023/04/02 04:46:29;;;;;;;1.70;1.60;;;8.80;99.90;;;;;;5093916;28;20261;-78
2023/04/02 04:49:11;;;;;;;1.50;1.50;;;8.70;99.90;;;;;;5094470;28;20175;-77
2023/04/02 04:52:09;;;;;;;1.50;1.40;;;8.60;99.90;;;;;;5094859;28;20212;-77
2023/04/02 04:54:37;;;;;;;1.60;1.50;;;8.60;99.90;;;;;;5074467;28;20189;-79
2023/04/02 04:57:15;;;;;;;1.70;1.60;;;8.60;99.90;;;;;;5094607;28;20163;-78
2023/04/02 04:59:48;;;;;;;1.83;1.73;;;8.70;99.90;;;;;;5094231;28;20589;-78
2023/04/02 05:02:26;;;;;;;1.90;1.80;;;8.70;99.90;;;;;;5094237;28;20249;-77
2023/04/02 05:04:52;;;;;;;2.03;1.60;;;8.70;99.90;;;;;;5093819;28;20218;-77
2023/04/02 05:07:24;;;;;;;1.53;1.43;;;8.70;99.90;;;;;;5093326;28;20178;-78
2023/04/02 05:10:01;;;;;;;1.27;1.27;;;8.70;99.90;;;;;;5093043;28;20203;-78
2023/04/02 05:12:58;;;;;;;2.30;1.80;;;8.80;99.90;;;;;;5093816;28;20162;-79
2023/04/02 05:15:38;;;;;;;1.40;1.40;;;8.80;99.90;;;;;;5093915;28;20178;-78
2023/04/02 05:18:16;;;;;;;1.73;1.63;;;8.80;99.90;;;;;;5092927;28;20167;-77
2023/04/02 05:20:57;;;;;;;1.57;1.50;;;8.70;99.90;;;;;;5093223;28;20205;-78
2023/04/02 05:23:57;;;;;;;1.97;1.87;;;8.70;99.90;;;;;;5093215;28;20248;-78
2023/04/02 05:26:43;;;;;;;1.50;1.40;;;8.80;99.90;;;;;;5093066;28;20186;-76
2023/04/02 05:29:18;;;;;;;1.70;1.60;;;8.80;99.90;;;;;;5092925;28;20170;-78
2023/04/02 05:31:59;;;;;;;1.40;1.40;;;8.90;99.90;;;;;;5092955;28;20236;-77
2023/04/02 05:34:31;;;;;;;1.20;1.20;;;9.00;99.90;;;;;;5092956;28;20165;-78
2023/04/02 05:36:57;;;;;;;1.57;1.57;;;9.10;99.90;;;;;;5092564;28;20162;-77
2023/04/02 05:39:25;;;;;;;3.30;2.10;;;9.10;99.90;;;;;;5092149;28;20734;-76
2023/04/02 05:42:07;;;;;;;3.30;3.10;;;9.20;99.90;;;;;;5092857;28;20240;-76
2023/04/02 05:44:36;;;;;;;2.70;2.53;;;9.20;99.90;;;;;;5092966;28;20745;-77
2023/04/02 05:47:19;;;;;;;2.83;2.20;;;9.20;99.90;;;;;;5091852;28;20242;-79
2023/04/02 05:50:04;;;;;;;2.10;2.00;;;9.30;99.90;;;;;;5076101;28;20162;-78
2023/04/02 05:52:34;;;;;;;2.33;2.23;;;9.40;99.90;;;;;;5092548;28;20212;-76
2023/04/02 05:55:12;;;;;;;2.20;2.10;;;9.40;99.90;;;;;;5073925;28;20184;-77
2023/04/02 05:57:54;;;;;;;1.67;1.50;;;9.30;99.90;;;;;;5092168;28;20182;-77
2023/04/02 06:00:40;;;;;;;1.57;1.47;;;9.30;99.90;;;;;;5092227;28;20275;-78
2023/04/02 06:03:27;;;;;;;1.30;1.30;;;9.30;99.90;;;;;;5092468;28;20172;-77
2023/04/02 06:05:56;;;;;;;1.93;1.70;;;9.30;99.90;;;;;;5092639;28;20665;-77
2023/04/02 06:08:44;;;;;;;1.50;1.40;;;9.30;99.90;;;;;;5092458;28;20186;-77
2023/04/02 06:11:21;;;;;;;2.10;2.00;;;9.50;99.90;;;;;;5092632;28;20166;-77
2023/04/02 06:13:46;;;;;;;2.30;1.67;;;9.60;99.90;;;;;;5092504;28;20169;-75
2023/04/02 06:16:14;;;;;;;1.60;1.47;;;9.70;99.90;;;;;;5091627;28;20187;-77
2023/04/02 06:18:41;;;;;;;1.83;1.67;;;9.70;99.90;;;;;;5095608;28;20187;-78
2023/04/02 06:21:10;;;;;;;1.83;1.73;;;9.80;99.90;;;;;;5114552;28;20696;-78
2023/04/02 06:23:47;;;;;;;2.03;1.67;;;9.80;99.90;;;;;;5116765;28;20171;-78
2023/04/02 06:26:31;;;;;;;1.40;1.30;;;9.70;99.90;;;;;;5116567;28;20165;-76
2023/04/02 06:29:38;;;;;;;1.50;1.40;;;9.70;99.90;;;;;;5116337;28;20620;-76
2023/04/02 06:32:09;;;;;;;1.53;1.53;;;9.90;99.90;;;;;;5033386;28;20177;-77
2023/04/02 06:34:38;;;;;;;2.90;2.70;;;10.00;99.90;;;;;;5033568;28;20551;-77
2023/04/02 06:37:22;;;;;;;1.93;1.83;;;10.10;99.90;;;;;;5033716;28;20170;-78
2023/04/02 06:39:48;;;;;;;2.00;1.90;;;10.20;99.90;;;;;;5032833;28;20226;-76
2023/04/02 06:42:27;;;;;;;1.80;1.70;;;10.30;99.80;;;;;;5033230;28;20215;-76
2023/04/02 06:44:53;;;;;;;1.30;1.30;;;10.40;99.90;;;;;;5033579;28;20177;-79
2023/04/02 06:47:36;;;;;;;1.30;1.30;;;10.50;99.60;;;;;;5033261;28;20285;-78
2023/04/02 06:50:11;;;;;;;1.30;1.17;;;10.70;99.50;;;;;;5033048;28;20180;-77
2023/04/02 06:52:52;;;;;;;1.20;1.20;;;10.80;99.20;;;;;;5016585;28;20612;-77
2023/04/02 06:56:12;;;;;;;1.23;1.23;;;10.90;98.70;;;;;;5033566;28;20642;-78
2023/04/02 06:58:37;;;;;;;1.23;1.00;;;11.00;98.40;;;;;;4973386;28;20300;-77
2023/04/02 07:01:03;;;;;;;1.10;1.10;;;11.00;98.40;;;;;;4973916;28;20253;-78
2023/04/02 07:03:31;;;;;;;1.83;1.03;;;11.00;98.40;;;;;;5007754;28;20280;-77
2023/04/02 07:05:58;;;;;;;1.10;1.10;;;11.00;98.60;;;;;;5074225;28;20271;-76
2023/04/02 07:08:24;;;;;;;1.13;1.13;;;11.10;98.80;;;;;;5115393;28;20167;-78
2023/04/02 07:10:50;;;;;;;1.17;1.17;;;11.20;98.60;;;;;;5115465;28;20178;-77
2023/04/02 07:13:18;;;;;;;2.73;2.17;;;11.30;98.60;;;;;;5115690;28;20199;-77
2023/04/02 07:15:52;;;;;;;2.73;2.53;;;11.40;99.40;;;;;;5115507;28;20165;-77
2023/04/02 07:18:27;;;;;;;3.20;2.90;;;11.50;99.50;;;;;;5114420;28;20197;-78
2023/04/02 07:20:53;;;;;;;2.70;2.50;;;11.60;99.70;;;;;;5094885;28;20216;-77
2023/04/02 07:23:20;;;;;;;2.80;2.60;;;11.70;99.80;;;;;;5095163;28;20172;-78
2023/04/02 07:25:49;;;;;;;3.93;2.70;;;11.80;99.90;;;;;;5095286;28;20174;-77
2023/04/02 07:28:16;;;;;;;2.30;2.10;;;11.90;99.70;;;;;;5095211;28;20265;-78
2023/04/02 07:30:43;;;;;;;2.23;2.13;;;12.00;98.70;;;;;;5095303;28;20871;-78
2023/04/02 07:33:15;;;;;;;2.13;2.03;;;12.00;99.00;;;;;;5094979;28;20193;-79
2023/04/02 07:35:41;;;;;;;2.27;2.10;;;12.00;98.90;;;;;;5095460;28;20162;-78
2023/04/02 07:38:07;;;;;;;2.07;1.97;;;12.10;99.00;;;;;;5095256;28;20175;-77
2023/04/02 07:40:33;;;;;;;3.17;2.47;;;12.20;99.10;;;;;;5094586;28;20213;-77
2023/04/02 07:42:59;;;;;;;1.90;1.80;;;12.20;98.90;;;;;;5095424;28;20254;-80
2023/04/02 07:45:25;;;;;;;2.13;1.93;;;12.30;98.80;;;;;;5095136;28;20995;-78
2023/04/02 07:47:52;;;;;;;2.00;1.90;;;12.30;98.90;;;;;;5095033;28;20270;-77
2023/04/02 07:50:18;;;;;;;2.63;2.13;;;12.30;98.90;;;;;;5094019;28;20178;-77
2023/04/02 07:52:45;;;;;;;2.60;2.10;;;12.40;98.60;;;;;;5094828;28;20174;-78
2023/04/02 07:55:13;;;;;;;2.67;2.47;;;12.50;98.30;;;;;;5094716;28;20176;-76
2023/04/02 07:57:40;;;;;;;2.23;2.13;;;12.50;98.40;;;;;;5094505;28;20287;-75
2023/04/02 08:00:09;;;;;;;6.13;2.70;;;12.60;98.50;;;;;;5093575;28;20228;-78
2023/04/02 08:02:35;;;;;;;2.30;2.20;;;12.60;98.60;;;;;;5094101;28;20178;-78
2023/04/02 08:05:01;;;;;;;2.30;2.20;;;12.80;98.70;;;;;;5094654;28;20176;-76
2023/04/02 08:07:27;;;;;;;2.33;2.13;;;12.80;98.10;;;;;;5095217;28;20220;-76
2023/04/02 08:09:53;;;;;;;2.80;2.60;;;12.90;98.10;;;;;;5095042;28;20174;-78
2023/04/02 08:12:18;;;;;;;2.40;2.30;;;13.00;98.10;;;;;;5094659;28;20177;-77
2023/04/02 08:14:44;;;;;;;2.43;2.23;;;13.00;98.00;;;;;;5094552;28;20174;-77
2023/04/02 08:17:10;;;;;;;2.50;2.40;;;13.20;98.40;;;;;;5094360;28;20574;-77
2023/04/02 08:19:36;;;;;;;2.57;2.37;;;13.30;98.20;;;;;;5093615;28;20216;-79
2023/04/02 08:22:02;;;;;;;2.40;2.20;;;13.40;97.80;;;;;;5093845;28;20177;-77
2023/04/02 08:24:27;;;;;;;2.50;2.40;;;13.40;97.90;;;;;;5093935;28;20167;-78
2023/04/02 08:26:53;;;;;;;2.77;2.57;;;13.30;97.80;;;;;;5093797;28;20223;-78
2023/04/02 08:29:20;;;;;;;2.67;2.57;;;13.30;97.80;;;;;;5093440;28;20241;-78
2023/04/02 08:31:46;;;;;;;2.17;2.00;;;13.40;98.00;;;;;;5093625;28;20163;-77
2023/04/02 08:34:12;;;;;;;3.53;2.10;;;13.50;98.00;;;;;;5093590;28;20168;-78
2023/04/02 08:36:40;;;;;;;2.63;2.43;;;13.50;97.90;;;;;;5093468;28;20166;-79
2023/04/02 08:39:10;;;;;;;2.90;2.70;;;13.50;97.50;;;;;;5075179;28;20206;-77
2023/04/02 08:41:43;;;;;;;2.33;2.23;;;13.60;97.80;;;;;;5093322;28;20304;-77
2023/04/02 08:44:35;;;;;;;2.70;2.60;;;13.80;97.60;;;;;;5092245;28;20254;-78
2023/04/02 08:47:06;;;;;;;2.77;2.60;;;13.90;97.80;;;;;;5092025;28;20222;-77
2023/04/02 08:50:01;;;;;;;2.70;2.60;;;14.10;97.80;;;;;;5074833;28;20181;-77
2023/04/02 08:52:33;;;;;;;2.53;2.43;;;14.10;97.70;;;;;;5092631;28;20173;-77
2023/04/02 08:55:01;;;;;;;2.57;2.47;;;14.30;97.70;;;;;;5092884;28;20166;-77
2023/04/02 08:57:35;;;;;;;2.50;2.40;;;14.40;97.40;;;;;;5093216;28;20280;-77
2023/04/02 09:00:37;;;;;;;2.33;2.00;;;14.50;97.00;;;;;;5092461;28;20276;-77
2023/04/02 09:03:44;;;;;;;1.87;1.80;;;14.70;96.40;;;;;;5092963;28;20176;-77
2023/04/02 09:06:16;;;;;;;1.90;1.77;;;14.70;96.00;;;;;;5089572;28;20337;-76
2023/04/02 09:08:43;;;;;;;2.50;2.30;;;14.90;96.30;;;;;;5074509;28;20227;-77
2023/04/02 09:11:36;;;;;;;2.20;2.10;;;15.00;96.30;;;;;;5092605;28;20217;-76
2023/04/02 09:14:10;;;;;;;1.70;1.60;;;15.10;96.00;;;;;;5093023;28;20277;-77
2023/04/02 09:16:59;;;;;;;1.63;1.57;;;15.30;96.10;;;;;;5094264;28;20159;-79
2023/04/02 09:19:36;;;;;;;2.13;2.03;;;15.60;95.80;;;;;;5102555;28;20280;-76
2023/04/02 09:22:16;;;;;;;2.20;2.10;;;15.70;95.90;;;;;;5113713;28;20240;-76
2023/04/02 09:24:42;;;;;;;2.30;2.20;;;15.70;95.80;;;;;;5114448;28;20315;-77
2023/04/02 09:27:30;;;;;;;2.20;2.10;;;15.70;95.70;;;;;;5114307;28;20205;-76
2023/04/02 09:30:02;;;;;;;2.00;1.90;;;15.60;96.00;;;;;;5114339;28;20230;-77
2023/04/02 09:32:46;;;;;;;2.37;2.17;;;15.70;95.30;;;;;;5115762;28;20155;-75
2023/04/02 09:35:33;;;;;;;2.07;1.90;;;15.70;94.90;;;;;;5114999;28;20208;-77
2023/04/02 09:38:31;;;;;;;1.77;1.67;;;15.60;94.00;;;;;;5114249;28;20172;-77
2023/04/02 09:41:02;;;;;;;1.87;1.70;;;15.60;94.00;;;;;;5094692;28;20186;-77
2023/04/02 09:43:37;;;;;;;1.50;1.50;;;15.60;94.30;;;;;;5113846;28;20241;-77
2023/04/02 09:46:12;;;;;;;1.70;1.60;;;15.80;94.50;;;;;;5111256;28;20178;-76
2023/04/02 09:48:54;;;;;;;1.30;1.30;;;16.00;94.30;;;;;;5092583;28;20569;-76
2023/04/02 09:51:24;;;;;;;1.63;1.60;;;16.20;93.90;;;;;;5093434;28;20303;-77
2023/04/02 09:54:02;;;;;;;1.27;1.23;;;16.40;93.50;;;;;;5092833;28;20706;-76
2023/04/02 09:56:30;;;;;;;1.70;1.60;;;16.50;92.50;;;;;;5093221;28;20587;-78
2023/04/02 09:59:14;;;;;;;1.30;1.30;;;16.50;92.20;;;;;;5092315;28;20290;-78
2023/04/02 10:02:00;;;;;;;1.23;1.13;;;16.60;91.90;;;;;;5091777;28;20679;-79
2023/04/02 10:04:46;;;;;;;1.00;0.90;;;16.70;90.90;;;;;;5092431;28;20161;-77
2023/04/02 10:07:38;;;;;;;0.80;0.80;;;16.70;90.50;;;;;;5092106;28;20181;-78
2023/04/02 10:10:29;;;;;;;1.10;1.10;;;16.70;90.30;;;;;;5092288;28;20281;-77
2023/04/02 10:13:21;;;;;;;1.10;1.10;;;16.90;91.00;;;;;;5091390;28;20240;-78
2023/04/02 10:16:09;;;;;;;0.90;0.90;;;17.00;90.50;;;;;;5091840;28;20160;-77
2023/04/02 10:18:57;;;;;;;1.00;1.00;;;16.90;91.10;;;;;;5094513;28;20178;-78
2023/04/02 10:21:30;;;;;;;1.27;1.23;;;16.80;91.20;;;;;;5112124;28;20170;-79
2023/04/02 10:23:58;;;;;;;2.47;1.33;;;16.90;91.30;;;;;;5113236;28;20155;-78
2023/04/02 10:26:45;;;;;;;1.23;1.23;;;16.80;91.20;;;;;;5112468;28;20181;-78
2023/04/02 10:29:35;;;;;;;1.97;1.87;;;16.80;90.10;;;;;;5112535;28;20665;-78
2023/04/02 10:32:19;;;;;;;1.77;1.67;;;16.60;88.70;;;;;;5111639;28;20165;-77
2023/04/02 10:34:48;;;;;;;1.00;1.00;;;16.60;89.10;;;;;;5112163;28;20191;-77
2023/04/02 10:37:45;;;;;;;1.00;1.00;;;16.70;88.10;;;;;;5112412;28;20551;-79
2023/04/02 10:40:15;;;;;;;1.00;1.00;;;16.80;86.50;;;;;;5112655;28;20198;-77
2023/04/02 10:42:45;;;;;;;1.20;1.13;;;17.10;86.80;;;;;;5111922;28;20181;-80
2023/04/02 10:45:50;;;;;;;2.00;1.90;;;17.30;87.20;;;;;;5112764;28;20191;-77
2023/04/02 10:48:45;;;;;;;2.30;2.20;;;17.40;86.80;;;;;;5094427;28;20189;-77
2023/04/02 10:51:23;;;;;;;1.23;1.23;;;17.50;86.00;;;;;;5112495;28;20196;-77
2023/04/02 10:54:06;;;;;;;0.87;0.87;;;17.40;85.30;;;;;;5111708;28;20242;-78
2023/04/02 10:56:33;;;;;;;0.90;0.90;;;17.40;86.00;;;;;;5116186;28;20255;-82
2023/04/02 10:59:12;;;;;;;0.90;0.90;;;17.30;86.20;;;;;;5113842;28;20673;-78
2023/04/02 11:01:42;;;;;;;0.70;0.70;;;17.30;85.60;;;;;;5112639;28;20158;-77
2023/04/02 11:04:13;;;;;;;0.70;0.70;;;17.40;84.90;;;;;;5103067;28;20169;-79
2023/04/02 11:07:12;;;;;;;0.90;0.90;;;17.40;85.50;;;;;;5093202;28;20172;-78
2023/04/02 11:09:41;;;;;;;0.60;0.60;;;17.50;84.20;;;;;;5076722;28;20185;-78
2023/04/02 11:12:19;;;;;;;0.90;0.70;;;17.60;84.20;;;;;;5094675;28;20175;-78
2023/04/02 11:14:46;;;;;;;0.90;0.90;;;17.70;84.90;;;;;;5095787;28;20166;-77
2023/04/02 11:17:15;;;;;;;0.70;0.70;;;18.00;84.40;;;;;;5095078;28;20174;-77
2023/04/02 11:19:41;;;;;;;1.40;1.30;;;18.00;83.80;;;;;;5107739;28;20637;-77
2023/04/02 11:22:19;;;;;;;0.73;0.73;;;17.90;84.80;;;;;;5116278;28;20227;-78
2023/04/02 11:24:52;;;;;;;1.23;0.50;;;17.80;83.70;;;;;;5116435;28;20161;-79
2023/04/02 11:27:36;;;;;;;0.50;0.50;;;17.70;83.30;;;;;;5095110;28;20577;-76
2023/04/02 11:30:17;;;;;;;0.60;0.60;;;17.50;83.10;;;;;;5095050;28;20629;-77
2023/04/02 11:32:48;;;;;;;0.77;0.77;;;17.50;83.50;;;;;;5094892;28;20166;-76
2023/04/02 11:35:25;;;;;;;0.60;0.60;;;17.50;83.30;;;;;;5076218;28;20208;-77
2023/04/02 11:37:53;;;;;;;4.30;3.90;;;17.40;84.10;;;;;;5095205;28;20257;-77
2023/04/02 11:40:49;;;;;;;1.20;1.17;;;17.50;85.10;;;;;;5095045;28;20216;-76
2023/04/02 11:43:49;;;;;;;0.90;0.63;;;17.70;85.20;;;;;;5094740;28;20708;-78
2023/04/02 11:46:35;;;;;;;0.80;0.80;;;17.90;84.00;;;;;;5008186;28;20193;-79
2023/04/02 11:49:38;;;;;;;0.90;0.90;;;18.10;83.30;;;;;;5094843;28;20155;-77
2023/04/02 11:52:18;;;;;;;0.67;0.67;;;18.10;82.80;;;;;;4992668;28;20275;-77
2023/04/02 11:54:44;;;;;;;0.50;0.50;;;18.20;82.80;;;;;;4992441;28;20191;-78
2023/04/02 11:57:26;;;;;;;0.50;0.50;;;18.00;82.10;;;;;;4992699;28;20176;-77
2023/04/02 12:00:21;;;;;;;0.67;0.67;;;17.80;82.60;;;;;;4992363;28;20235;-76
2023/04/02 12:03:31;;;;;;;0.37;0.37;;;17.70;79.70;;;;;;4992600;28;20185;-76
2023/04/02 12:06:06;;;;;;;0.33;0.33;;;17.80;78.00;;;;;;4934868;29;20193;-76
2023/04/02 12:08:40;;;;;;;1.47;0.40;;;17.40;77.40;;;;;;4919373;29;20532;-77
2023/04/02 12:11:06;;;;;;;0.60;0.60;;;17.40;78.10;;;;;;4934564;29;20239;-77
2023/04/02 12:13:41;;;;;;;0.40;0.40;;;17.20;77.00;;;;;;4934472;29;20195;-79
2023/04/02 12:16:09;;;;;;;0.67;0.67;;;17.00;77.30;;;;;;4934694;29;20183;-76
2023/04/02 12:18:40;;;;;;;0.40;0.40;;;17.00;77.60;;;;;;4934557;29;20187;-77
2023/04/02 12:21:06;;;;;;;0.30;0.30;;;17.00;77.80;;;;;;4934443;29;20699;-77
2023/04/02 12:23:35;;;;;;;0.33;0.33;;;17.00;76.80;;;;;;4935363;29;20195;-77
2023/04/02 12:26:05;;;;;;;0.20;0.20;;;17.00;77.20;;;;;;4953601;28;20663;-77
2023/04/02 12:28:36;;;;;;;0.50;0.27;;;17.10;76.60;;;;;;4973022;28;20269;-77
2023/04/02 12:31:12;;;;;;;0.20;0.20;;;17.20;77.30;;;;;;4973174;28;20181;-77
2023/04/02 12:33:39;;;;;;;0.43;0.43;;;17.30;76.50;;;;;;4972846;28;20216;-77
2023/04/02 12:36:26;;;;;;;1.00;1.00;;;17.50;77.10;;;;;;4973968;28;20193;-77
2023/04/02 12:38:54;;;;;;;0.43;0.43;;;17.30;75.20;;;;;;4972895;28;20590;-77
2023/04/02 12:41:25;;;;;;;0.27;0.27;;;16.90;75.70;;;;;;4973494;28;20178;-78
2023/04/02 12:44:17;;;;;;;0.27;0.27;;;16.90;76.10;;;;;;5088849;28;20181;-77
2023/04/02 12:46:45;;;;;;;0.10;0.10;;;17.00;76.10;;;;;;5075247;28;20217;-79
2023/04/02 12:49:39;;;;;;;0.30;0.30;;;17.00;74.80;;;;;;5091786;28;20175;-77
2023/04/02 12:52:16;;;;;;;0.20;0.20;;;17.00;75.40;;;;;;5093566;28;20568;-79
2023/04/02 12:54:50;;;;;;;2.10;0.30;;;17.10;75.60;;;;;;5093600;28;20190;-77
2023/04/02 12:57:24;;;;;;;0.20;0.20;;;17.20;75.30;;;;;;5093478;28;20529;-78
2023/04/02 12:59:52;;;;;;;0.17;0.17;;;17.20;75.10;;;;;;5093232;28;20271;-76
2023/04/02 13:02:23;;;;;;;0.27;0.27;;;17.20;75.10;;;;;;5093647;28;20170;-76
2023/04/02 13:04:59;;;;;;;0.30;0.30;;;17.20;76.00;;;;;;5093287;28;20186;-78
2023/04/02 13:07:28;;;;;;;0.20;0.20;;;17.20;76.00;;;;;;5094152;28;20188;-77
2023/04/02 13:09:58;;;;;;;0.30;0.30;;;17.40;76.10;;;;;;5075027;28;20182;-78
2023/04/02 13:12:33;;;;;;;0.20;0.20;;;17.40;75.90;;;;;;5074788;28;20175;-78
2023/04/02 13:15:03;;;;;;;0.10;0.10;;;17.30;75.60;;;;;;5093401;28;20572;-79
2023/04/02 13:17:43;;;;;;;0.30;0.30;;;17.00;77.20;;;;;;5094555;28;20175;-77
2023/04/02 13:20:31;;;;;;;0.20;0.20;;;16.70;78.70;;;;;;5091900;28;20227;-77
2023/04/02 13:22:58;;;;;;;0.20;0.20;;;16.40;80.30;;;;;;5115134;28;20162;-77
2023/04/02 13:25:34;;;;;;;0.20;0.20;;;15.90;81.60;;;;;;5114578;28;20205;-76
2023/04/02 13:28:00;;;;;;;0.30;0.30;;;15.40;82.90;;;;;;5113567;28;20201;-77
2023/04/02 13:30:28;;;;;;;0.20;0.20;;;15.30;84.10;;;;;;5113145;28;20166;-77
2023/04/02 13:32:55;;;;;;;0.20;0.20;;;15.00;86.20;;;;;;5113421;28;20215;-77
2023/04/02 13:35:21;;;;;;;0.30;0.30;;;14.90;86.70;;;;;;5113676;28;20166;-77
2023/04/02 13:37:47;;;;;;;0.40;0.40;;;15.00;86.80;;;;;;5113561;28;20525;-77